createdAt,value
2023-01-17T00:01:07.200Z,0.90
2023-01-17T00:03:55.708Z,0.80
2023-01-17T00:06:49.995Z,0.70
2023-01-17T00:09:53.113Z,0.80
2023-01-17T00:12:35.796Z,0.80
2023-01-17T00:15:04.656Z,0.80
2023-01-17T00:17:35.673Z,0.80
2023-01-17T00:20:24.219Z,0.70
2023-01-17T00:23:10.121Z,0.70
2023-01-17T00:26:03.927Z,0.60
2023-01-17T00:28:42.255Z,0.60
2023-01-17T00:31:11.549Z,0.60
2023-01-17T00:33:40.186Z,0.70
2023-01-17T00:36:09.075Z,0.70
2023-01-17T00:38:56.448Z,0.60
2023-01-17T00:41:45.237Z,0.60
2023-01-17T00:44:52.692Z,0.50
2023-01-17T00:47:58.130Z,0.50
2023-01-17T00:50:44.367Z,0.50
2023-01-17T00:53:30.260Z,0.70
2023-01-17T00:56:19.954Z,0.80
2023-01-17T00:59:05.814Z,0.70
2023-01-17T01:01:52.456Z,0.60
2023-01-17T01:04:38.568Z,0.60
2023-01-17T01:07:24.371Z,0.60
2023-01-17T01:10:10.619Z,0.50
2023-01-17T01:12:56.153Z,0.50
2023-01-17T01:15:42.297Z,0.40
2023-01-17T01:18:30.347Z,0.40
2023-01-17T01:21:22.005Z,0.40
2023-01-17T01:24:07.853Z,0.40
2023-01-17T01:26:53.825Z,0.40
2023-01-17T01:29:39.778Z,0.50
2023-01-17T01:32:25.616Z,0.50
2023-01-17T01:34:52.970Z,0.50
2023-01-17T01:37:20.423Z,0.50
2023-01-17T01:39:47.812Z,0.40
2023-01-17T01:42:16.558Z,0.40
2023-01-17T01:44:50.440Z,0.40
2023-01-17T01:47:31.849Z,0.50
2023-01-17T01:50:03.149Z,0.50
2023-01-17T01:52:33.350Z,0.50
2023-01-17T01:55:05.450Z,0.40
2023-01-17T01:57:37.743Z,0.40
2023-01-17T02:00:14.650Z,0.40
2023-01-17T02:02:44.136Z,0.50
2023-01-17T02:05:13.660Z,0.50
2023-01-17T02:07:50.229Z,0.40
2023-01-17T02:10:17.796Z,0.40
2023-01-17T02:12:45.888Z,0.30
2023-01-17T02:15:13.437Z,0.30
2023-01-17T02:18:06.511Z,0.30
2023-01-17T02:20:58.644Z,0.40
2023-01-17T02:24:04.019Z,0.40
2023-01-17T02:26:51.155Z,0.30
2023-01-17T02:29:42.916Z,0.30
2023-01-17T02:32:13.127Z,0.20
2023-01-17T02:34:59.035Z,0.30
2023-01-17T02:37:49.670Z,0.30
2023-01-17T02:40:27.916Z,0.30
2023-01-17T02:43:02.839Z,0.20
2023-01-17T02:45:30.275Z,0.20
2023-01-17T02:47:57.733Z,0.20
2023-01-17T02:50:32.308Z,0.30
2023-01-17T02:53:36.741Z,0.20
2023-01-17T02:56:43.854Z,0.20
2023-01-17T02:59:26.583Z,0.10
2023-01-17T03:02:15.708Z,0.20
2023-01-17T03:05:11.095Z,0.10
2023-01-17T03:07:41.747Z,0.10
2023-01-17T03:10:11.435Z,0.20
2023-01-17T03:12:40.469Z,0.10
2023-01-17T03:15:17.559Z,0.10
2023-01-17T03:17:52.415Z,0.10
2023-01-17T03:20:22.397Z,0.10
2023-01-17T03:22:50.191Z,0.10
2023-01-17T03:25:17.770Z,0.00
2023-01-17T03:27:45.178Z,0.00
2023-01-17T03:30:13.804Z,0.00
2023-01-17T03:32:41.182Z,0.00
2023-01-17T03:35:09.001Z,0.10
2023-01-17T03:37:36.358Z,0.00
2023-01-17T03:40:04.466Z,0.00
2023-01-17T03:42:31.798Z,0.10
2023-01-17T03:44:59.189Z,0.10
2023-01-17T03:47:26.533Z,0.00
2023-01-17T03:49:53.948Z,0.00
2023-01-17T03:52:21.297Z,-0.10
2023-01-17T03:54:48.661Z,-0.10
2023-01-17T03:57:16.062Z,-0.10
2023-01-17T03:59:43.474Z,0.00
2023-01-17T04:02:10.916Z,0.00
2023-01-17T04:04:38.373Z,0.00
2023-01-17T04:07:05.912Z,0.00
2023-01-17T04:09:34.565Z,0.00
2023-01-17T04:12:02.932Z,0.00
2023-01-17T04:14:30.353Z,-0.10
2023-01-17T04:16:57.959Z,0.00
2023-01-17T04:19:25.411Z,-0.10
2023-01-17T04:21:52.800Z,-0.10
2023-01-17T04:24:20.179Z,-0.20
2023-01-17T04:26:47.617Z,-0.20
2023-01-17T04:29:14.966Z,-0.20
2023-01-17T04:31:42.340Z,-0.10
2023-01-17T04:34:09.710Z,-0.10
2023-01-17T04:36:37.991Z,-0.10
2023-01-17T04:39:05.381Z,-0.10
2023-01-17T04:41:32.867Z,-0.10
2023-01-17T04:44:00.264Z,-0.10
2023-01-17T04:46:28.431Z,-0.10
2023-01-17T04:48:55.953Z,0.00
2023-01-17T04:51:23.355Z,0.00
2023-01-17T04:53:50.765Z,0.10
2023-01-17T04:56:21.183Z,0.00
2023-01-17T04:58:48.687Z,0.00
2023-01-17T05:01:16.248Z,0.00
2023-01-17T05:03:43.731Z,0.00
2023-01-17T05:06:11.358Z,0.00
2023-01-17T05:08:38.738Z,0.00
2023-01-17T05:11:06.623Z,-0.10
2023-01-17T05:13:34.042Z,-0.10
2023-01-17T05:16:01.517Z,-0.10
2023-01-17T05:18:29.008Z,-0.10
2023-01-17T05:21:02.323Z,-0.10
2023-01-17T05:23:30.177Z,-0.10
2023-01-17T05:25:57.507Z,-0.10
2023-01-17T05:28:25.250Z,-0.20
2023-01-17T05:30:52.658Z,-0.30
2023-01-17T05:33:20.014Z,-0.40
2023-01-17T05:35:47.404Z,-0.40
2023-01-17T05:38:14.859Z,-0.40
2023-01-17T05:40:42.219Z,-0.30
2023-01-17T05:43:09.725Z,-0.30
2023-01-17T05:45:37.217Z,-0.30
2023-01-17T05:48:05.010Z,-0.30
2023-01-17T05:50:37.418Z,-0.30
2023-01-17T05:53:07.433Z,-0.30
2023-01-17T05:55:35.273Z,-0.30
2023-01-17T05:58:04.164Z,-0.30
2023-01-17T06:00:32.159Z,-0.30
2023-01-17T06:03:00.539Z,-0.30
2023-01-17T06:05:29.156Z,-0.20
2023-01-17T06:07:56.980Z,-0.20
2023-01-17T06:10:24.930Z,-0.20
2023-01-17T06:13:08.490Z,-0.20
2023-01-17T06:15:37.615Z,-0.30
2023-01-17T06:18:13.459Z,-0.40
2023-01-17T06:20:41.439Z,-0.30
2023-01-17T06:23:11.864Z,-0.30
2023-01-17T06:25:40.968Z,-0.30
2023-01-17T06:28:08.368Z,-0.30
2023-01-17T06:30:36.215Z,-0.30
2023-01-17T06:33:04.629Z,-0.20
2023-01-17T06:35:32.608Z,-0.10
2023-01-17T06:38:00.571Z,0.20
2023-01-17T06:40:29.280Z,0.20
2023-01-17T06:43:04.269Z,0.20
2023-01-17T06:45:33.863Z,0.10
2023-01-17T06:48:04.115Z,0.00
2023-01-17T06:50:32.515Z,-0.10
2023-01-17T06:53:02.654Z,-0.20
2023-01-17T06:55:31.185Z,-0.30
2023-01-17T06:58:02.909Z,-0.40
2023-01-17T07:00:35.091Z,-0.40
2023-01-17T07:03:02.819Z,-0.50
2023-01-17T07:05:30.474Z,-0.50
2023-01-17T07:07:57.977Z,-0.40
2023-01-17T07:10:25.334Z,-0.40
2023-01-17T07:12:59.464Z,-0.40
2023-01-17T07:15:26.828Z,-0.40
2023-01-17T07:17:54.140Z,-0.40
2023-01-17T07:20:21.524Z,-0.40
2023-01-17T07:22:48.851Z,-0.30
2023-01-17T07:25:16.302Z,-0.30
2023-01-17T07:27:43.618Z,-0.30
2023-01-17T07:30:11.664Z,-0.30
2023-01-17T07:32:39.363Z,-0.30
2023-01-17T07:35:07.209Z,-0.40
2023-01-17T07:37:34.612Z,-0.40
2023-01-17T07:40:03.080Z,-0.40
2023-01-17T07:42:30.443Z,-0.40
2023-01-17T07:44:57.806Z,-0.40
2023-01-17T07:47:25.173Z,-0.30
2023-01-17T07:49:52.548Z,-0.30
2023-01-17T07:52:19.971Z,-0.30
2023-01-17T07:54:47.333Z,-0.30
2023-01-17T07:57:14.680Z,-0.30
2023-01-17T07:59:42.034Z,-0.30
2023-01-17T08:02:19.893Z,-0.20
2023-01-17T08:04:48.264Z,-0.20
2023-01-17T08:07:16.226Z,-0.20
2023-01-17T08:09:44.249Z,-0.20
2023-01-17T08:12:11.677Z,-0.20
2023-01-17T08:14:39.058Z,-0.10
2023-01-17T08:17:08.049Z,-0.10
2023-01-17T08:19:35.484Z,-0.10
2023-01-17T08:22:03.291Z,-0.10
2023-01-17T08:24:30.677Z,-0.20
2023-01-17T08:26:58.096Z,-0.20
2023-01-17T08:29:25.807Z,-0.30
2023-01-17T08:31:54.115Z,-0.30
2023-01-17T08:34:22.476Z,-0.30
2023-01-17T08:36:52.878Z,-0.30
2023-01-17T08:39:21.257Z,-0.30
2023-01-17T08:41:48.646Z,-0.30
2023-01-17T08:44:15.973Z,-0.20
2023-01-17T08:46:44.243Z,-0.20
2023-01-17T08:49:12.406Z,-0.10
2023-01-17T08:51:40.377Z,0.00
2023-01-17T08:54:09.790Z,0.00
2023-01-17T08:56:37.215Z,0.00
2023-01-17T08:59:04.637Z,0.10
2023-01-17T09:01:40.585Z,0.10
2023-01-17T09:04:09.550Z,0.10
2023-01-17T09:06:39.369Z,0.10
2023-01-17T09:09:07.986Z,-0.10
2023-01-17T09:11:35.436Z,-0.10
2023-01-17T09:14:03.501Z,-0.10
2023-01-17T09:16:32.257Z,0.00
2023-01-17T09:19:00.440Z,0.10
2023-01-17T09:21:27.997Z,0.10
2023-01-17T09:23:55.740Z,0.20
2023-01-17T09:26:26.271Z,0.30
2023-01-17T09:28:54.613Z,0.40
2023-01-17T09:31:23.792Z,0.40
2023-01-17T09:33:54.949Z,0.40
2023-01-17T09:36:22.946Z,0.50
2023-01-17T09:38:55.259Z,0.40
2023-01-17T09:41:34.928Z,0.50
2023-01-17T09:44:11.260Z,0.50
2023-01-17T09:46:44.949Z,0.50
2023-01-17T09:49:13.332Z,0.40
2023-01-17T09:51:42.165Z,0.40
2023-01-17T09:54:24.689Z,0.30
2023-01-17T09:57:08.885Z,0.20
2023-01-17T09:59:45.411Z,0.20
2023-01-17T10:02:16.218Z,0.10
2023-01-17T10:05:20.392Z,0.10
2023-01-17T10:08:06.657Z,0.30
2023-01-17T10:10:36.745Z,0.40
2023-01-17T10:13:31.444Z,0.50
2023-01-17T10:16:16.998Z,0.60
2023-01-17T10:19:20.652Z,0.70
2023-01-17T10:22:05.866Z,0.70
2023-01-17T10:24:52.215Z,0.70
2023-01-17T10:27:28.096Z,0.80
2023-01-17T10:29:55.581Z,0.80
2023-01-17T10:32:28.729Z,0.90
2023-01-17T10:35:00.889Z,0.90
2023-01-17T10:37:42.961Z,0.90
2023-01-17T10:40:24.666Z,1.00
2023-01-17T10:43:05.178Z,1.10
2023-01-17T10:45:40.536Z,1.20
2023-01-17T10:48:36.542Z,1.10
2023-01-17T10:51:35.736Z,1.10
2023-01-17T10:54:35.314Z,1.10
2023-01-17T10:57:02.788Z,1.10
2023-01-17T10:59:33.778Z,1.10
2023-01-17T11:02:07.503Z,1.10
2023-01-17T11:04:38.183Z,1.10
2023-01-17T11:07:13.670Z,1.10
2023-01-17T11:09:55.052Z,1.10
2023-01-17T11:12:30.189Z,1.20
2023-01-17T11:15:00.396Z,1.30
2023-01-17T11:17:28.647Z,1.40
2023-01-17T11:20:25.571Z,1.40
2023-01-17T11:23:14.097Z,1.50
2023-01-17T11:25:58.861Z,1.60
2023-01-17T11:28:38.058Z,1.60
2023-01-17T11:31:07.886Z,1.70
2023-01-17T11:33:48.184Z,1.70
2023-01-17T11:36:19.944Z,1.80
2023-01-17T11:39:22.404Z,1.90
2023-01-17T11:41:51.040Z,2.00
2023-01-17T11:44:33.651Z,2.00
2023-01-17T11:47:14.245Z,2.00
2023-01-17T11:49:44.693Z,2.00
2023-01-17T11:52:33.460Z,2.10
2023-01-17T11:55:01.098Z,2.10
2023-01-17T11:57:33.417Z,2.10
2023-01-17T12:00:08.851Z,2.20
2023-01-17T12:03:15.278Z,2.20
2023-01-17T12:05:59.440Z,2.20
2023-01-17T12:08:32.440Z,2.30
2023-01-17T12:11:19.136Z,2.30
2023-01-17T12:14:04.047Z,2.30
2023-01-17T12:17:09.079Z,2.30
2023-01-17T12:19:48.942Z,2.30
2023-01-17T12:22:35.853Z,2.40
2023-01-17T12:25:03.257Z,2.40
2023-01-17T12:27:34.792Z,2.50
2023-01-17T12:30:34.213Z,2.60
2023-01-17T12:33:30.718Z,2.60
2023-01-17T12:36:03.526Z,2.80
2023-01-17T12:38:38.576Z,3.30
2023-01-17T12:41:12.487Z,3.50
2023-01-17T12:43:41.193Z,3.50
2023-01-17T12:46:38.631Z,3.50
2023-01-17T12:49:27.699Z,3.60
2023-01-17T12:52:07.456Z,3.70
2023-01-17T12:54:42.842Z,3.80
2023-01-17T12:57:15.852Z,3.90
2023-01-17T13:00:06.987Z,4.00
2023-01-17T13:02:59.392Z,4.20
2023-01-17T13:05:46.041Z,4.50
2023-01-17T13:08:22.397Z,4.60
2023-01-17T13:11:03.918Z,4.80
2023-01-17T13:13:32.568Z,4.70
2023-01-17T13:16:12.848Z,4.40
2023-01-17T13:18:46.342Z,4.30
2023-01-17T13:21:16.675Z,4.20
2023-01-17T13:23:59.212Z,4.10
2023-01-17T13:26:55.405Z,4.10
2023-01-17T13:29:44.234Z,4.00
2023-01-17T13:32:48.913Z,4.00
2023-01-17T13:35:44.635Z,4.10
2023-01-17T13:38:34.023Z,4.20
2023-01-17T13:41:50.367Z,4.40
2023-01-17T13:44:27.123Z,4.60
2023-01-17T13:47:02.380Z,4.90
2023-01-17T13:49:29.689Z,4.90
2023-01-17T13:52:11.032Z,4.70
2023-01-17T13:54:58.394Z,4.30
2023-01-17T13:57:34.679Z,4.10
2023-01-17T14:00:22.132Z,3.90
2023-01-17T14:02:51.304Z,3.70
2023-01-17T14:05:23.130Z,3.50
2023-01-17T14:08:18.347Z,3.40
2023-01-17T14:10:51.756Z,3.20
2023-01-17T14:13:38.919Z,3.10
2023-01-17T14:16:28.230Z,3.10
2023-01-17T14:18:56.036Z,3.00
2023-01-17T14:21:31.600Z,3.00
2023-01-17T14:24:04.012Z,2.90
2023-01-17T14:26:33.603Z,2.90
2023-01-17T14:29:40.042Z,2.80
2023-01-17T14:32:11.591Z,2.70
2023-01-17T14:34:39.138Z,2.70
2023-01-17T14:37:18.489Z,2.60
2023-01-17T14:39:48.885Z,2.60
2023-01-17T14:42:20.317Z,2.50
2023-01-17T14:44:55.575Z,2.50
2023-01-17T14:47:23.023Z,2.50
2023-01-17T14:50:17.872Z,2.50
2023-01-17T14:52:45.488Z,2.50
2023-01-17T14:55:19.414Z,2.50
2023-01-17T14:57:56.841Z,2.50
2023-01-17T15:00:25.628Z,2.40
2023-01-17T15:02:54.034Z,2.40
2023-01-17T15:05:23.546Z,2.40
2023-01-17T15:07:56.276Z,2.40
2023-01-17T15:10:28.202Z,2.40
2023-01-17T15:12:57.609Z,2.40
2023-01-17T15:15:31.756Z,2.30
2023-01-17T15:18:14.505Z,2.30
2023-01-17T15:20:47.207Z,2.30
2023-01-17T15:23:20.833Z,2.20
2023-01-17T15:25:50.617Z,2.20
2023-01-17T15:28:18.796Z,2.20
2023-01-17T15:31:04.659Z,2.20
2023-01-17T15:33:33.916Z,2.10
2023-01-17T15:36:28.142Z,2.10
2023-01-17T15:39:18.342Z,2.00
2023-01-17T15:41:47.583Z,2.10
2023-01-17T15:44:42.647Z,2.00
2023-01-17T15:47:37.985Z,2.00
2023-01-17T15:50:27.975Z,1.90
2023-01-17T15:53:01.383Z,1.90
2023-01-17T15:55:34.399Z,1.90
2023-01-17T15:58:02.470Z,1.90
2023-01-17T16:00:39.063Z,1.90
2023-01-17T16:03:26.730Z,2.00
2023-01-17T16:05:56.839Z,1.90
2023-01-17T16:08:32.860Z,1.90
2023-01-17T16:11:02.841Z,1.90
2023-01-17T16:13:43.487Z,1.90
2023-01-17T16:16:23.688Z,1.90
2023-01-17T16:19:02.195Z,1.90
2023-01-17T16:21:31.328Z,1.80
2023-01-17T16:24:00.290Z,1.80
2023-01-17T16:26:29.483Z,1.80
2023-01-17T16:28:57.170Z,1.70
2023-01-17T16:31:24.619Z,1.70
2023-01-17T16:33:52.251Z,1.70
2023-01-17T16:36:21.217Z,1.90
2023-01-17T16:38:51.312Z,2.10
2023-01-17T16:41:19.764Z,2.00
2023-01-17T16:44:01.327Z,1.90
2023-01-17T16:46:29.667Z,1.80
2023-01-17T16:48:59.801Z,1.70
2023-01-17T16:51:28.518Z,1.60
2023-01-17T16:53:56.033Z,1.60
2023-01-17T16:56:23.445Z,1.60
2023-01-17T16:58:53.120Z,1.60
2023-01-17T17:01:22.547Z,1.60
2023-01-17T17:03:50.299Z,1.50
2023-01-17T17:06:17.880Z,1.50
2023-01-17T17:08:45.253Z,1.50
2023-01-17T17:11:19.079Z,1.50
2023-01-17T17:13:48.747Z,1.40
2023-01-17T17:16:20.869Z,1.40
2023-01-17T17:18:55.961Z,1.40
2023-01-17T17:21:23.779Z,1.40
2023-01-17T17:23:56.961Z,1.40
2023-01-17T17:26:26.850Z,1.50
2023-01-17T17:28:54.655Z,1.40
2023-01-17T17:31:22.198Z,1.40
2023-01-17T17:33:49.790Z,1.40
2023-01-17T17:36:17.600Z,1.30
2023-01-17T17:38:51.212Z,1.30
2023-01-17T17:41:26.953Z,1.40
2023-01-17T17:43:54.534Z,1.50
2023-01-17T17:46:24.083Z,1.50
2023-01-17T17:48:51.555Z,1.50
2023-01-17T17:51:37.155Z,1.60
2023-01-17T17:54:16.609Z,1.60
2023-01-17T17:56:46.602Z,1.60
2023-01-17T17:59:18.301Z,1.60
2023-01-17T18:01:48.375Z,1.60
2023-01-17T18:04:16.240Z,1.60
2023-01-17T18:06:44.440Z,1.60
2023-01-17T18:09:13.339Z,1.60
2023-01-17T18:11:42.358Z,1.60
2023-01-17T18:14:13.647Z,1.60
2023-01-17T18:16:43.518Z,1.50
2023-01-17T18:19:20.487Z,1.50
2023-01-17T18:21:50.439Z,1.50
2023-01-17T18:24:20.549Z,1.40
2023-01-17T18:26:50.870Z,1.40
2023-01-17T18:29:20.842Z,1.50
2023-01-17T18:31:50.269Z,1.50
2023-01-17T18:34:21.606Z,1.50
2023-01-17T18:36:49.647Z,1.40
2023-01-17T18:39:24.414Z,1.40
2023-01-17T18:41:52.210Z,1.40
2023-01-17T18:44:22.168Z,1.40
2023-01-17T18:46:52.573Z,1.40
2023-01-17T18:49:20.995Z,1.40
2023-01-17T18:51:51.120Z,1.40
2023-01-17T18:54:19.924Z,1.40
2023-01-17T18:56:48.005Z,1.30
2023-01-17T18:59:18.617Z,1.30
2023-01-17T19:01:46.464Z,1.20
2023-01-17T19:04:15.918Z,1.20
2023-01-17T19:06:45.963Z,1.10
2023-01-17T19:09:14.683Z,1.10
2023-01-17T19:11:44.532Z,1.10
2023-01-17T19:14:12.773Z,1.10
2023-01-17T19:16:41.757Z,1.10
2023-01-17T19:19:14.878Z,1.10
2023-01-17T19:21:42.670Z,1.10
2023-01-17T19:24:13.159Z,1.10
2023-01-17T19:26:41.573Z,1.10
2023-01-17T19:29:10.744Z,1.10
2023-01-17T19:31:42.473Z,1.10
2023-01-17T19:34:13.912Z,1.00
2023-01-17T19:36:41.706Z,1.00
2023-01-17T19:39:09.694Z,1.00
2023-01-17T19:41:41.652Z,1.00
2023-01-17T19:44:10.875Z,1.00
2023-01-17T19:46:38.631Z,1.00
2023-01-17T19:49:08.194Z,1.00
2023-01-17T19:51:37.295Z,1.00
2023-01-17T19:54:06.514Z,1.00
2023-01-17T19:56:34.192Z,1.00
2023-01-17T19:59:02.228Z,1.10
2023-01-17T20:01:32.575Z,1.00
2023-01-17T20:04:02.133Z,1.00
2023-01-17T20:06:33.069Z,1.00
2023-01-17T20:09:01.253Z,0.90
2023-01-17T20:11:29.303Z,0.90
2023-01-17T20:13:58.737Z,0.90
2023-01-17T20:16:28.622Z,0.90
2023-01-17T20:18:57.629Z,0.90
2023-01-17T20:21:26.891Z,0.80
2023-01-17T20:23:58.104Z,0.80
2023-01-17T20:26:46.023Z,0.80
2023-01-17T20:29:15.292Z,0.80
2023-01-17T20:31:44.098Z,0.80
2023-01-17T20:34:13.837Z,0.80
2023-01-17T20:36:42.110Z,0.80
2023-01-17T20:39:12.524Z,0.80
2023-01-17T20:41:42.107Z,0.80
2023-01-17T20:44:13.006Z,0.80
2023-01-17T20:46:43.431Z,0.80
2023-01-17T20:49:15.059Z,0.80
2023-01-17T20:51:44.397Z,0.70
2023-01-17T20:54:14.389Z,0.70
2023-01-17T20:56:42.746Z,0.70
2023-01-17T20:59:15.807Z,0.70
2023-01-17T21:01:43.957Z,0.70
2023-01-17T21:04:12.965Z,0.70
2023-01-17T21:06:42.107Z,0.70
2023-01-17T21:09:12.806Z,0.70
2023-01-17T21:11:40.185Z,0.70
2023-01-17T21:14:07.817Z,0.70
2023-01-17T21:16:35.452Z,0.70
2023-01-17T21:19:03.748Z,0.60
2023-01-17T21:21:31.229Z,0.60
2023-01-17T21:23:59.832Z,0.60
2023-01-17T21:26:28.809Z,0.60
2023-01-17T21:28:57.911Z,0.60
2023-01-17T21:31:28.121Z,0.60
2023-01-17T21:33:58.422Z,0.70
2023-01-17T21:36:29.102Z,0.70
2023-01-17T21:38:58.113Z,0.50
2023-01-17T21:41:28.977Z,0.50
2023-01-17T21:43:58.864Z,0.50
2023-01-17T21:46:27.458Z,0.50
2023-01-17T21:48:56.776Z,0.50
2023-01-17T21:51:45.071Z,0.40
2023-01-17T21:54:13.178Z,0.40
2023-01-17T21:56:59.449Z,0.40
2023-01-17T21:59:26.929Z,0.30
2023-01-17T22:01:54.334Z,0.40
2023-01-17T22:04:21.832Z,0.40
2023-01-17T22:06:49.247Z,0.40
2023-01-17T22:09:16.906Z,0.40
2023-01-17T22:11:44.305Z,0.40
2023-01-17T22:14:11.659Z,0.40
2023-01-17T22:16:39.036Z,0.40
2023-01-17T22:19:06.466Z,0.40
2023-01-17T22:21:33.825Z,0.50
2023-01-17T22:24:01.419Z,0.40
2023-01-17T22:26:30.708Z,0.40
2023-01-17T22:29:02.088Z,0.40
2023-01-17T22:31:29.467Z,0.30
2023-01-17T22:34:00.292Z,0.40
2023-01-17T22:36:28.890Z,0.30
2023-01-17T22:38:56.915Z,0.30
2023-01-17T22:41:29.623Z,0.30
2023-01-17T22:43:59.145Z,0.20
2023-01-17T22:46:28.904Z,0.30
2023-01-17T22:48:57.528Z,0.30
2023-01-17T22:51:27.212Z,0.30
2023-01-17T22:53:57.194Z,0.20
2023-01-17T22:56:28.635Z,0.20
2023-01-17T22:58:57.499Z,0.30
2023-01-17T23:01:30.172Z,0.20
2023-01-17T23:04:00.165Z,0.20
2023-01-17T23:06:34.043Z,0.20
2023-01-17T23:09:05.239Z,0.20
2023-01-17T23:11:46.254Z,0.20
2023-01-17T23:14:53.827Z,0.20
2023-01-17T23:17:41.517Z,0.20
2023-01-17T23:20:10.895Z,0.10
2023-01-17T23:22:38.288Z,0.10
2023-01-17T23:25:12.836Z,0.20
2023-01-17T23:28:05.151Z,0.20
2023-01-17T23:30:37.900Z,0.20
2023-01-17T23:33:16.199Z,0.20
2023-01-17T23:35:46.152Z,0.30
2023-01-17T23:38:30.795Z,0.20
2023-01-17T23:41:26.754Z,0.30
2023-01-17T23:43:55.959Z,0.30
2023-01-17T23:46:25.322Z,0.30
2023-01-17T23:48:52.978Z,0.30
2023-01-17T23:51:20.358Z,0.30
2023-01-17T23:53:47.672Z,0.30
2023-01-17T23:56:21.730Z,0.20
2023-01-17T23:58:49.532Z,0.20
